Terminal Aerodrome Forecast
Issued by NWS Greer, SC

Home | Current Version | Previous Version | Text Only | Print | Product List | Glossary On
Versions: 1 2 3 4 5 6 7 8 9 10 11 12 13 14 15 16 17 18 19 20 21 22 23 24 25 26 27 28 29 30 31 32 33 34 35 36
000
FTUS42 KGSP 201130
TAFAVL
TAF
KAVL 201130Z 2012/2112 16003KT P6SM VCSH OVC010 WS020/22030KT
      TEMPO 2012/2014 5SM -SHRA BR OVC005
     FM201400 34003KT P6SM VCSH OVC015
     FM201800 33006KT P6SM BKN025
     FM202100 21007KT P6SM BKN040
     FM210700 36003KT 3SM BR BKN025
     FM210900 36003KT 1SM BR BKN007=

USA.gov is the U.S. government's official web portal to all federal, state and local government web resources and services.